Terminal Aerodrome Forecast
Issued by NWS

Home | Current Version | Previous Version | Text Only | Print | Product List | Glossary On
Versions: 1 2 3 4 5 6 7 8 9 10 11 12 13 14 15 16 17 18 19 20 21 22 23 24
000
FTUS46 KSEW 210200 AAB
TAFSEA
TAF AMD
KSEA 210205Z 2102/2206 19013KT 6SM BR SCT009 OVC025
      TEMPO 2102/2104 19015G25KT 4SM -RA BR BKN009 OVC025
     FM210400 21018G26KT 6SM -RA OVC015
     FM211700 21015G22KT P6SM VCSH OVC025
     FM212200 21014G21KT P6SM VCSH SCT025 OVC045=

USA.gov is the U.S. government's official web portal to all federal, state and local government web resources and services.